Centralia, IL

10:13 AM CST on January 19, 2018 (GMT -0600)
Centralia Municipal

Weather History for KENL - March, 2013

Change the Weather History Date:

Sunday, March 24, 2013

  Actual Average (KSLO) Record (KSLO)
Temperature  
Mean Temperature 38 °F -  
Max Temperature 43 °F 56 °F 81 °F (1967)
Min Temperature 32 °F 34 °F -2 °F (1974)
Degree Days  
Heating Degree Days 26    
Moisture  
Dew Point 32 °F    
Average Humidity 90    
Maximum Humidity 96    
Minimum Humidity 54    
Precipitation  
Precipitation 0.41 in - - ()
Sea Level Pressure  
Sea Level Pressure 29.63 in    
Wind  
Wind Speed 12 mph (North)    
Max Wind Speed 23 mph    
Max Gust Speed 32 mph    
Visibility 3 miles    
Events Rain , Snow , Thunderstorm    
Averages and records for this station are not official NWS values.
T = Trace of Precipitation, MM = Missing Value Source: NWS Daily Summary

Daily Weather History Graph

Daily Weather History Graph

Search for Another Location

Airport or City:

Trip Planner

Search our weather history database for the weather conditions in past years. The results will help you decide how hot, cold, wet, or windy it might be!

Date:

Astronomy

Mar. 24, 2013 Rise Set
Actual Time 6:53 AM CDT 7:12 PM CDT
Civil Twilight 6:26 AM CDT 7:38 PM CDT
Nautical Twilight 5:55 AM CDT 8:10 PM CDT
Astronomical Twilight 5:24 AM CDT 8:41 PM CDT
Moon 4:42 PM CDT (3/24) 5:01 AM CDT (3/24)
Length of Visible Light 13h 12m
Length of Day
12h 19m
Waxing Gibbous, 92% of the Moon is Illuminated
Mar 24
Waxing Gibbous
Mar 27
Full
Apr 2
Last Quarter
Apr 10
New
Apr 18
First Quarter

Hourly Weather History & Observations

Time (CDT) Temp. Windchill Dew Point Humidity Pressure Visibility Wind Dir Wind Speed Gust Speed Precip Events Conditions
12:15 AM 45.5 °F 40.8 °F 29.5 °F 54% 29.81 in 10.0 mi NE 9.2 mph - N/A   Overcast
12:35 AM 44.8 °F 41.0 °F 30.7 °F 58% 29.82 in 10.0 mi NNE 6.9 mph - N/A Rain Light Rain
12:55 AM 43.5 °F 37.9 °F 32.0 °F 64% 29.83 in 10.0 mi NE 10.4 mph 20.7 mph N/A Rain Light Rain
1:15 AM 41.0 °F 34.7 °F 33.4 °F 74% 29.84 in 7.0 mi NE 10.4 mph 18.4 mph 0.01 in Rain Light Rain
1:35 AM 40.1 °F 33.2 °F 34.5 °F 80% 29.84 in 7.0 mi NE 11.5 mph - 0.02 in Rain Light Rain
1:55 AM 39.4 °F 31.8 °F 34.9 °F 84% 29.83 in 7.0 mi NE 12.7 mph - 0.04 in Rain Light Rain
2:15 AM 38.8 °F 32.6 °F 34.9 °F 86% 29.82 in 7.0 mi NE 9.2 mph - 0.01 in Rain Light Rain
2:35 AM 37.8 °F 30.7 °F 34.7 °F 89% 29.81 in 5.0 mi NNE 10.4 mph 17.3 mph 0.03 in Rain Light Rain
2:55 AM 37.0 °F 31.0 °F 34.5 °F 91% 29.81 in 4.0 mi NNE 8.1 mph - 0.03 in   Light Drizzle
3:15 AM 36.1 °F 29.3 °F 34.0 °F 92% 29.78 in 3.0 mi NNE 9.2 mph - N/A   Drizzle
3:35 AM 35.6 °F 26.6 °F 33.8 °F 93% 29.76 in 3.0 mi NNE 13.8 mph 17.3 mph 0.01 in   Light Drizzle
3:55 AM 35.6 °F 26.6 °F 33.4 °F 92% 29.75 in 4.0 mi NE 13.8 mph 20.7 mph 0.01 in   Overcast
4:15 AM 35.6 °F 28.0 °F 33.4 °F 92% 29.75 in 5.0 mi NE 10.4 mph - N/A   Overcast
4:35 AM 35.4 °F 26.4 °F 33.3 °F 92% 29.75 in 7.0 mi NNE 13.8 mph 17.3 mph N/A   Overcast
4:55 AM 35.6 °F 28.6 °F 33.3 °F 91% 29.76 in 5.0 mi NNE 9.2 mph - N/A   Overcast
5:15 AM 35.2 °F 27.1 °F 33.3 °F 92% 29.74 in 3.0 mi NE 11.5 mph - N/A Rain Rain
5:35 AM 35.1 °F 25.9 °F 33.3 °F 93% 29.70 in 4.0 mi NE 13.8 mph 20.7 mph N/A   Overcast
5:55 AM 35.1 °F 25.9 °F 33.1 °F 92% 29.71 in 5.0 mi NE 13.8 mph 18.4 mph N/A   Overcast
6:15 AM 35.2 °F 27.1 °F 33.1 °F 92% 29.70 in 5.0 mi NE 11.5 mph - N/A   Overcast
6:35 AM 35.2 °F 26.6 °F 32.9 °F 91% 29.71 in 5.0 mi NE 12.7 mph 17.3 mph N/A   Overcast
6:55 AM 35.2 °F 25.8 °F 33.1 °F 92% 29.69 in 5.0 mi NE 15.0 mph 21.9 mph N/A   Overcast
7:15 AM 35.6 °F 26.6 °F 32.9 °F 90% 29.67 in 5.0 mi NE 13.8 mph 19.6 mph N/A   Overcast
7:35 AM 35.6 °F 28.0 °F 32.9 °F 90% 29.67 in 5.0 mi ENE 10.4 mph 19.6 mph N/A   Overcast
7:55 AM 35.6 °F 26.6 °F 32.9 °F 90% 29.64 in 5.0 mi ENE 13.8 mph - N/A   Overcast
8:15 AM 35.6 °F 27.1 °F 32.9 °F 90% 29.65 in 5.0 mi ENE 12.7 mph - N/A   Overcast
8:35 AM 35.6 °F 27.1 °F 32.9 °F 90% 29.64 in 5.0 mi ENE 12.7 mph 17.3 mph N/A   Overcast
8:55 AM 35.6 °F 25.9 °F 32.9 °F 90% 29.60 in 3.0 mi ENE 16.1 mph 21.9 mph 0.01 in Rain Rain
9:15 AM 35.6 °F 25.9 °F 33.1 °F 91% 29.56 in 3.0 mi ENE 16.1 mph 20.7 mph 0.01 in Rain Light Rain
9:35 AM 35.8 °F 24.2 °F 33.3 °F 91% 29.50 in 4.0 mi ENE 23.0 mph - 0.01 in   Overcast
9:55 AM 36.1 °F 26.2 °F 33.4 °F 90% 29.50 in 4.0 mi ENE 17.3 mph 25.3 mph 0.02 in   Overcast
10:15 AM 36.5 °F 29.7 °F 33.3 °F 88% 29.54 in 5.0 mi East 9.2 mph 16.1 mph N/A   Overcast
10:35 AM 36.5 °F 28.7 °F 33.3 °F 88% 29.51 in 5.0 mi ENE 11.5 mph - N/A Rain , Thunderstorm Light Thunderstorms and Rain
10:55 AM 36.7 °F 30.5 °F 34.0 °F 90% 29.50 in 3.0 mi East 8.1 mph 16.1 mph 0.06 in Rain , Thunderstorm Thunderstorms and Rain
11:15 AM 35.8 °F - 33.1 °F 90% 29.56 in 1.5 mi Calm Calm - 0.05 in Rain , Thunderstorm Heavy Thunderstorms and Rain
11:35 AM 34.0 °F 27.2 °F 32.2 °F 93% 29.57 in 0.8 mi West 8.1 mph - 0.11 in Thunderstorm Thunderstorm
11:55 AM 33.6 °F 26.2 °F 32.0 °F 94% 29.53 in 0.5 mi NNW 9.2 mph - 0.16 in Snow , Thunderstorm Light Thunderstorms and Snow
12:15 PM 33.8 °F 28.6 °F 32.2 °F 94% 29.54 in 1.0 mi NNW 5.8 mph - 0.01 in Rain , Thunderstorm Light Thunderstorms and Rain
12:35 PM 33.8 °F 27.7 °F 32.4 °F 94% 29.53 in 1.0 mi NNW 6.9 mph - 0.01 in Snow Light Snow
12:55 PM 33.6 °F 25.6 °F 32.2 °F 94% 29.50 in 1.2 mi North 10.4 mph - 0.02 in Snow Light Snow
1:15 PM 33.4 °F 25.9 °F 32.2 °F 95% 29.49 in 1.0 mi North 9.2 mph - 0.02 in Snow Light Snow
1:35 PM 33.8 °F 26.4 °F 32.4 °F 94% 29.50 in 0.5 mi North 9.2 mph - 0.04 in Snow Light Snow
1:55 PM 33.6 °F 25.6 °F 32.4 °F 95% 29.48 in 1.8 mi North 10.4 mph - 0.05 in   Overcast
2:15 PM 33.8 °F 25.3 °F 32.4 °F 94% 29.48 in 0.8 mi NNW 11.5 mph - N/A Snow Light Snow
2:35 PM 33.8 °F 25.8 °F 32.2 °F 94% 29.48 in 0.8 mi North 10.4 mph - 0.01 in Snow Light Snow
2:55 PM 33.8 °F 25.8 °F 32.2 °F 94% 29.48 in 1.5 mi NNW 10.4 mph - 0.01 in Snow Light Snow
3:15 PM 34.0 °F 26.6 °F 32.4 °F 94% 29.48 in 2.0 mi NNW 9.2 mph - N/A   Overcast
3:35 PM 34.0 °F 25.5 °F 32.2 °F 93% 29.48 in 2.0 mi NNW 11.5 mph - N/A Snow Light Snow
3:55 PM 34.0 °F 26.6 °F 32.2 °F 93% 29.48 in 1.0 mi NNW 9.2 mph - N/A Snow Light Snow
4:15 PM 34.0 °F 26.0 °F 32.2 °F 93% 29.48 in 1.2 mi NNW 10.4 mph - N/A Snow Light Snow
4:35 PM 34.0 °F 26.0 °F 32.2 °F 93% 29.48 in 1.5 mi NNW 10.4 mph - N/A Snow Light Snow
4:55 PM 34.0 °F 27.2 °F 32.2 °F 93% 29.49 in 2.5 mi NNW 8.1 mph - N/A Snow Light Snow
5:15 PM 34.0 °F 25.5 °F 32.2 °F 93% 29.50 in 3.0 mi West 11.5 mph - N/A Snow Light Snow
5:35 PM 33.6 °F 23.3 °F 32.0 °F 94% 29.51 in 1.0 mi WNW 16.1 mph - N/A Snow Light Snow
5:55 PM 33.3 °F 22.8 °F 32.0 °F 95% 29.53 in 0.8 mi NW 16.1 mph 23.0 mph N/A Snow Light Snow
6:15 PM 33.1 °F 22.2 °F 32.0 °F 96% 29.54 in 1.2 mi NW 17.3 mph 20.7 mph N/A Snow Light Snow
6:35 PM 32.9 °F 21.6 °F 31.5 °F 94% 29.56 in 0.8 mi WNW 18.4 mph 25.3 mph N/A Snow Light Snow
6:55 PM 32.5 °F 21.5 °F 31.1 °F 94% 29.57 in 0.5 mi NW 17.3 mph 27.6 mph N/A Snow Snow
7:15 PM 32.5 °F 21.5 °F 31.5 °F 96% 29.58 in 0.5 mi NW 17.3 mph 27.6 mph N/A Snow Snow
7:35 PM 32.9 °F 20.7 °F 31.5 °F 94% 29.59 in 1.5 mi NW 21.9 mph 26.5 mph N/A Snow Light Snow
7:55 PM 32.9 °F 21.0 °F 31.5 °F 94% 29.61 in 1.2 mi NW 20.7 mph 28.8 mph N/A Snow Light Snow
8:15 PM 32.9 °F 21.3 °F 31.6 °F 95% 29.62 in 1.5 mi NW 19.6 mph 27.6 mph N/A Snow Light Snow
8:35 PM 32.9 °F 21.0 °F 31.5 °F 94% 29.63 in 1.5 mi NW 20.7 mph 26.5 mph N/A Snow Light Snow
8:55 PM 32.9 °F 21.0 °F 31.5 °F 94% 29.64 in 1.2 mi NW 20.7 mph 27.6 mph N/A Snow Light Snow
9:15 PM 32.9 °F 21.6 °F 31.3 °F 94% 29.65 in 1.8 mi NW 18.4 mph 31.1 mph N/A Snow Light Snow
9:35 PM 32.9 °F 22.4 °F 31.1 °F 93% 29.66 in 2.0 mi NW 16.1 mph 26.5 mph N/A Snow Light Snow
9:55 PM 32.9 °F 22.0 °F 31.1 °F 93% 29.67 in 1.8 mi NW 17.3 mph 29.9 mph N/A Snow Light Snow
10:15 PM 32.9 °F 22.8 °F 31.1 °F 93% 29.68 in 2.5 mi WNW 15.0 mph 21.9 mph N/A Snow Light Snow
10:35 PM 32.9 °F 22.0 °F 31.1 °F 93% 29.68 in 3.0 mi NW 17.3 mph 27.6 mph N/A Snow Light Snow
10:55 PM 32.9 °F 23.2 °F 31.1 °F 93% 29.70 in 3.0 mi NW 13.8 mph 32.2 mph N/A Snow Light Snow
11:15 PM 33.1 °F 22.2 °F 30.9 °F 92% 29.70 in 5.0 mi WNW 17.3 mph 25.3 mph N/A Snow Light Snow
11:35 PM 33.1 °F 22.2 °F 31.1 °F 92% 29.71 in 4.0 mi WNW 17.3 mph 23.0 mph N/A Snow Light Snow
11:55 PM 32.9 °F 21.3 °F 31.1 °F 93% 29.71 in 1.8 mi WNW 19.6 mph 24.2 mph N/A Snow Light Snow